Time;durP1;ratioP1;P1;durP2;ratioP2;P2;SDS_P1;SDS_P2;PMS_P1;PMS_P2;Temp;Humidity;BMP_temperature;BMP_pressure;BME280_temperature;BME280_humidity;BME280_pressure;Samples;Min_cycle;Max_cycle;Signal;HPM_P1;HPM_P2
2022/07/30 00:01:05;;;;;;;4.68;3.88;;;;;;;26.76;72.86;100003.97;5155071;27;20192;-74
2022/07/30 00:03:34;;;;;;;4.22;3.88;;;;;;;26.81;72.88;100006.41;5154531;27;20191;-74
2022/07/30 00:06:01;;;;;;;5.32;4.10;;;;;;;26.80;73.47;100004.66;5154590;27;20239;-74
2022/07/30 00:08:28;;;;;;;4.43;3.88;;;;;;;26.71;73.80;100006.03;5154623;27;20675;-74
2022/07/30 00:10:55;;;;;;;4.32;3.90;;;;;;;26.62;74.33;100014.47;5134146;27;20208;-74
2022/07/30 00:13:22;;;;;;;3.97;3.60;;;;;;;26.54;74.89;100008.72;5133935;27;20224;-73
2022/07/30 00:15:49;;;;;;;4.63;3.85;;;;;;;26.41;75.77;100003.16;5142614;27;20196;-74
2022/07/30 00:18:16;;;;;;;7.20;4.43;;;;;;;26.32;77.85;100014.28;5117259;27;20611;-73
2022/07/30 00:20:44;;;;;;;4.55;4.15;;;;;;;26.30;78.85;100009.94;5154198;27;20741;-74
2022/07/30 00:23:11;;;;;;;4.22;3.83;;;;;;;26.21;79.95;100015.75;5154648;27;20202;-73
2022/07/30 00:25:38;;;;;;;6.00;3.72;;;;;;;26.13;81.04;100008.97;5153496;27;20652;-73
2022/07/30 00:28:05;;;;;;;8.43;3.85;;;;;;;26.10;82.16;100021.56;5154451;27;20214;-74
2022/07/30 00:30:31;;;;;;;5.78;4.18;;;;;;;26.07;83.04;100019.91;5154047;27;20203;-74
2022/07/30 00:32:58;;;;;;;3.90;3.60;;;;;;;25.96;85.38;100030.22;5117639;27;20220;-74
2022/07/30 00:35:25;;;;;;;4.22;3.92;;;;;;;25.92;85.65;100020.66;5154205;27;20211;-73
2022/07/30 00:37:53;;;;;;;6.65;4.05;;;;;;;25.90;86.51;100027.84;5154186;27;20196;-73
2022/07/30 00:40:20;;;;;;;5.38;4.40;;;;;;;25.75;87.05;100020.63;5153461;27;20200;-73
2022/07/30 00:42:48;;;;;;;6.35;4.32;;;;;;;25.82;87.13;100030.03;5153846;27;20570;-73
2022/07/30 00:45:16;;;;;;;5.35;4.10;;;;;;;25.74;87.68;100008.28;5152679;27;20216;-75
2022/07/30 00:47:43;;;;;;;6.07;4.10;;;;;;;25.79;87.86;100030.16;5154087;27;20204;-73
2022/07/30 00:50:13;;;;;;;4.70;4.13;;;;;;;25.62;87.43;99995.56;5153150;27;20212;-74
2022/07/30 00:52:40;;;;;;;4.20;3.88;;;;;;;25.62;88.43;100025.66;5154048;27;20223;-74
2022/07/30 00:55:11;;;;;;;4.53;3.80;;;;;;;25.43;89.75;100010.63;5153275;27;20228;-74
2022/07/30 00:57:39;;;;;;;4.25;3.88;;;;;;;25.53;89.26;100033.19;5153407;27;20192;-74
2022/07/30 01:00:08;;;;;;;4.10;3.67;;;;;;;25.51;90.71;100035.91;5152509;27;20715;-74
2022/07/30 01:02:35;;;;;;;3.85;3.60;;;;;;;25.36;95.65;100035.75;5153473;27;20667;-74
2022/07/30 01:05:02;;;;;;;4.50;4.20;;;;;;;25.38;95.99;100039.19;5153932;27;20238;-74
2022/07/30 01:07:29;;;;;;;7.00;3.90;;;;;;;25.26;97.14;100021.16;5099892;27;20196;-74
2022/07/30 01:09:56;;;;;;;4.35;3.95;;;;;;;25.09;98.28;100017.50;5153343;27;20200;-74
2022/07/30 01:12:26;;;;;;;5.22;3.83;;;;;;;25.16;98.02;100034.84;5099957;27;20204;-74
2022/07/30 01:14:55;;;;;;;4.53;4.07;;;;;;;25.09;99.82;100030.75;5153427;27;20560;-73
2022/07/30 01:17:22;;;;;;;9.52;3.85;;;;;;;24.85;100.00;100013.28;5152902;27;20193;-75
2022/07/30 01:19:52;;;;;;;4.78;3.83;;;;;;;24.83;100.00;100023.09;5152382;27;20200;-74
2022/07/30 01:22:33;;;;;;;3.72;3.35;;;;;;;24.74;100.00;100020.81;5152972;27;20199;-73
2022/07/30 01:25:08;;;;;;;4.10;3.63;;;;;;;24.70;100.00;100021.88;5153208;27;20205;-74
2022/07/30 01:27:41;;;;;;;5.85;3.45;;;;;;;24.72;100.00;100020.03;5152433;27;20195;-74
2022/07/30 01:30:10;;;;;;;4.50;4.05;;;;;;;24.66;100.00;100010.56;5151915;27;20200;-74
2022/07/30 01:32:41;;;;;;;4.68;4.05;;;;;;;24.68;100.00;100015.81;5099093;27;20208;-74
2022/07/30 01:35:10;;;;;;;4.88;3.72;;;;;;;24.65;100.00;100015.91;5152036;27;20277;-75
2022/07/30 01:37:38;;;;;;;4.25;3.85;;;;;;;24.64;100.00;100016.84;5151510;27;20200;-74
2022/07/30 01:40:07;;;;;;;4.78;4.15;;;;;;;24.57;100.00;100010.97;5151864;27;20207;-75
2022/07/30 01:42:37;;;;;;;5.15;3.80;;;;;;;24.62;100.00;100019.56;5152209;27;20188;-74
2022/07/30 01:45:06;;;;;;;4.00;3.70;;;;;;;24.59;100.00;100010.88;5152454;27;20203;-75
2022/07/30 01:47:35;;;;;;;8.95;3.58;;;;;;;24.59;100.00;100016.19;5099231;27;20652;-74
2022/07/30 01:50:04;;;;;;;5.13;4.32;;;;;;;24.61;100.00;100006.38;5116125;27;20195;-75
2022/07/30 01:52:33;;;;;;;4.50;4.10;;;;;;;24.48;100.00;99994.56;5152347;27;20203;-74
2022/07/30 01:55:02;;;;;;;4.07;3.78;;;;;;;24.49;100.00;99999.81;5152785;27;20219;-74
2022/07/30 01:57:30;;;;;;;4.32;3.92;;;;;;;24.34;100.00;99989.00;5152282;27;20200;-74
2022/07/30 02:00:04;;;;;;;7.65;4.07;;;;;;;24.30;100.00;99987.41;5152382;27;20206;-74
2022/07/30 02:02:31;;;;;;;4.68;4.28;;;;;;;24.33;100.00;100000.56;5099101;27;20200;-74
2022/07/30 02:04:58;;;;;;;4.43;3.83;;;;;;;24.34;100.00;99999.59;5152421;27;20230;-74
2022/07/30 02:07:32;;;;;;;7.45;4.05;;;;;;;24.34;100.00;99989.00;5152317;27;20680;-74
2022/07/30 02:10:04;;;;;;;4.40;4.00;;;;;;;24.31;100.00;99994.44;5152153;27;20188;-74
2022/07/30 02:12:33;;;;;;;7.05;3.90;;;;;;;24.29;100.00;100006.91;5151873;27;20188;-75
2022/07/30 02:15:10;;;;;;;11.35;4.03;;;;;;;24.35;100.00;99998.69;5097348;27;20224;-74
2022/07/30 02:17:41;;;;;;;4.18;3.78;;;;;;;24.37;100.00;99994.16;5152388;27;20192;-75
2022/07/30 02:20:10;;;;;;;4.28;3.83;;;;;;;24.24;100.00;99982.38;5099529;27;20260;-75
2022/07/30 02:22:41;;;;;;;3.58;3.38;;;;;;;24.34;100.00;99994.31;5147448;27;20261;-74
2022/07/30 02:25:10;;;;;;;7.20;3.67;;;;;;;24.25;100.00;99973.50;5152255;27;20204;-75
2022/07/30 02:27:40;;;;;;;4.15;3.85;;;;;;;24.47;100.00;99999.00;5152450;27;20203;-74
2022/07/30 02:30:11;;;;;;;4.20;3.53;;;;;;;24.43;100.00;99996.56;5152233;27;20207;-74
2022/07/30 02:32:41;;;;;;;9.98;3.70;;;;;;;24.15;100.00;99981.81;5115011;27;20200;-74
2022/07/30 02:35:12;;;;;;;5.15;3.72;;;;;;;24.16;100.00;99990.66;5152078;27;20219;-74
2022/07/30 02:37:41;;;;;;;4.72;3.63;;;;;;;24.15;100.00;99996.91;5151791;27;20207;-74
2022/07/30 02:40:10;;;;;;;5.15;4.00;;;;;;;24.24;100.00;99995.63;5150645;27;20585;-74
2022/07/30 02:42:38;;;;;;;4.53;3.65;;;;;;;24.22;100.00;99986.91;5150731;27;20199;-74
2022/07/30 02:45:08;;;;;;;4.32;3.90;;;;;;;24.26;100.00;99991.97;5150526;27;20192;-74
2022/07/30 02:47:38;;;;;;;4.05;3.75;;;;;;;24.16;100.00;99985.34;5098624;27;20229;-74
2022/07/30 02:50:07;;;;;;;7.05;3.72;;;;;;;24.11;100.00;99977.53;5096954;27;20180;-74
2022/07/30 02:52:35;;;;;;;6.03;3.78;;;;;;;24.16;100.00;99996.81;5114069;27;20200;-74
2022/07/30 02:55:04;;;;;;;4.30;3.55;;;;;;;24.15;100.00;99994.25;5150722;27;20220;-75
2022/07/30 02:57:32;;;;;;;3.70;3.50;;;;;;;24.03;100.00;99992.94;5150830;27;20203;-75
2022/07/30 03:00:01;;;;;;;5.53;4.22;;;;;;;24.00;100.00;99979.81;5151203;27;20196;-74
2022/07/30 03:02:29;;;;;;;4.50;4.10;;;;;;;23.99;100.00;99993.09;5151966;27;20196;-75
2022/07/30 03:04:58;;;;;;;9.07;3.70;;;;;;;24.00;100.00;100005.44;5151466;27;20733;-74
2022/07/30 03:07:27;;;;;;;4.88;4.03;;;;;;;24.03;100.00;100005.31;5152212;27;20200;-74
2022/07/30 03:09:55;;;;;;;5.20;3.60;;;;;;;24.12;100.00;100000.47;5155906;27;20672;-74
2022/07/30 03:12:24;;;;;;;12.40;3.80;;;;;;;24.03;100.00;99989.41;5155139;27;20192;-74
2022/07/30 03:14:51;;;;;;;4.88;4.30;;;;;;;24.07;100.00;99999.81;5154829;27;20805;-74
2022/07/30 03:17:20;;;;;;;6.55;3.97;;;;;;;24.04;100.00;100009.69;5155649;27;20196;-75
2022/07/30 03:19:50;;;;;;;7.07;4.18;;;;;;;23.98;100.00;100009.91;5155510;27;20580;-75
2022/07/30 03:22:19;;;;;;;6.90;3.95;;;;;;;23.93;100.00;100007.47;5119054;27;20196;-74
2022/07/30 03:24:48;;;;;;;6.60;3.83;;;;;;;23.77;100.00;99995.75;5155473;27;20187;-75
2022/07/30 03:27:17;;;;;;;9.57;4.53;;;;;;;23.78;100.00;100009.88;5155725;27;20201;-74
2022/07/30 03:29:47;;;;;;;5.43;3.75;;;;;;;23.59;100.00;99986.78;5155300;27;20192;-74
2022/07/30 03:32:14;;;;;;;5.15;4.15;;;;;;;23.61;100.00;100003.47;5155518;27;20203;-75
2022/07/30 03:34:42;;;;;;;4.53;4.22;;;;;;;23.37;100.00;99999.06;5155651;27;20231;-75
2022/07/30 03:37:11;;;;;;;4.82;4.35;;;;;;;23.44;100.00;100008.53;5155097;27;20200;-75
2022/07/30 03:39:39;;;;;;;7.28;4.03;;;;;;;23.59;100.00;100009.72;5155050;27;20188;-74
2022/07/30 03:42:07;;;;;;;5.18;4.40;;;;;;;23.33;100.00;99935.78;5154779;27;20196;-75
2022/07/30 03:44:35;;;;;;;6.32;3.67;;;;;;;23.93;100.00;100014.56;5155432;27;20188;-73
2022/07/30 03:47:04;;;;;;;6.03;3.97;;;;;;;24.04;100.00;100002.56;5155169;27;20200;-75
2022/07/30 03:49:31;;;;;;;5.80;4.40;;;;;;;24.30;100.00;100017.44;5155029;27;20189;-74
2022/07/30 03:51:59;;;;;;;3.97;3.67;;;;;;;24.13;100.00;99948.38;5154858;27;20208;-74
2022/07/30 03:54:27;;;;;;;5.22;4.72;;;;;;;25.10;100.00;100011.25;5154579;27;20216;-74
2022/07/30 03:56:54;;;;;;;7.25;3.75;;;;;;;25.21;100.00;100021.38;5153864;27;20550;-75
2022/07/30 03:59:21;;;;;;;5.07;3.55;;;;;;;25.26;100.00;100013.19;5100784;27;20568;-72
2022/07/30 04:01:48;;;;;;;4.22;3.92;;;;;;;25.45;100.00;100016.72;5155183;27;20200;-70
2022/07/30 04:04:15;;;;;;;8.00;4.93;;;;;;;25.11;100.00;100015.63;5154707;27;20224;-73
2022/07/30 04:06:42;;;;;;;6.88;4.22;;;;;;;25.86;100.00;100015.66;5154751;27;20603;-73
2022/07/30 04:09:10;;;;;;;7.05;4.30;;;;;;;25.84;100.00;100025.47;5154370;27;20203;-73
2022/07/30 04:11:38;;;;;;;4.57;4.18;;;;;;;25.90;100.00;99990.63;5154780;27;20648;-74
2022/07/30 04:14:05;;;;;;;4.30;4.00;;;;;;;25.72;100.00;99990.69;5154253;27;20247;-76
2022/07/30 04:16:39;;;;;;;4.40;4.10;;;;;;;26.43;100.00;100008.41;5154565;27;20200;-73
2022/07/30 04:19:10;;;;;;;6.35;4.20;;;;;;;26.39;99.61;100021.00;5153155;27;20203;-74
2022/07/30 04:21:41;;;;;;;9.77;4.05;;;;;;;26.30;100.00;100032.06;5154174;27;20207;-73
2022/07/30 04:24:10;;;;;;;4.60;4.20;;;;;;;26.54;100.00;100033.50;5154587;27;20204;-73
2022/07/30 04:26:39;;;;;;;7.15;4.45;;;;;;;26.63;100.00;100040.16;5153956;27;20207;-71
2022/07/30 04:29:07;;;;;;;5.82;3.80;;;;;;;26.65;99.37;100013.47;5154015;27;20203;-72
2022/07/30 04:31:35;;;;;;;4.18;3.88;;;;;;;27.18;96.98;100037.28;5154578;27;20192;-71
2022/07/30 04:34:02;;;;;;;4.30;3.90;;;;;;;27.61;94.03;100047.34;5154119;27;20283;-70
2022/07/30 04:36:29;;;;;;;4.93;4.43;;;;;;;27.76;91.10;100034.94;5153899;27;20260;-71
2022/07/30 04:38:57;;;;;;;5.10;4.00;;;;;;;28.75;85.75;100062.97;5154074;27;20200;-72
2022/07/30 04:41:23;;;;;;;6.80;3.97;;;;;;;29.02;83.05;100049.75;5153581;27;20184;-71
2022/07/30 04:43:53;;;;;;;5.65;4.10;;;;;;;29.42;81.17;100038.34;5153967;27;20862;-71
2022/07/30 04:46:19;;;;;;;4.88;4.10;;;;;;;29.61;78.59;100040.66;5111339;27;20198;-71
2022/07/30 04:48:46;;;;;;;3.97;3.67;;;;;;;29.97;77.19;100043.69;5153888;27;20196;-72
2022/07/30 04:51:19;;;;;;;4.95;4.40;;;;;;;30.17;76.08;100045.06;5152622;27;20214;-72
2022/07/30 04:53:48;;;;;;;6.07;3.80;;;;;;;30.20;75.65;100038.63;5154213;27;20191;-73
2022/07/30 04:56:18;;;;;;;8.15;3.90;;;;;;;30.01;75.45;100029.16;5153502;27;20196;-71
2022/07/30 04:58:46;;;;;;;5.15;3.72;;;;;;;29.92;77.03;100047.63;5153019;27;20187;-72
2022/07/30 05:01:16;;;;;;;7.55;3.85;;;;;;;29.99;77.48;100043.59;5153727;27;20865;-72
2022/07/30 05:03:44;;;;;;;4.45;4.13;;;;;;;29.91;78.94;100046.75;5153313;27;20195;-71
2022/07/30 05:06:12;;;;;;;7.47;3.72;;;;;;;29.43;81.10;99999.13;5153302;27;20195;-72
2022/07/30 05:08:39;;;;;;;3.42;3.13;;;;;;;29.00;83.48;100020.44;5153554;27;20188;-73
2022/07/30 05:11:06;;;;;;;4.65;4.13;;;;;;;28.39;90.24;100014.44;5153345;27;20203;-72
2022/07/30 05:13:33;;;;;;;4.10;3.80;;;;;;;28.44;91.50;100028.34;5153083;27;20202;-72
2022/07/30 05:16:00;;;;;;;9.02;4.38;;;;;;;28.49;92.70;100032.47;5153384;27;20219;-72
2022/07/30 05:18:28;;;;;;;3.95;3.65;;;;;;;28.23;93.62;100034.94;5153158;27;20675;-72
2022/07/30 05:20:55;;;;;;;4.13;3.80;;;;;;;27.60;96.36;100024.31;5153004;27;20204;-72
2022/07/30 05:23:22;;;;;;;4.07;3.67;;;;;;;27.54;100.00;100028.16;5153526;27;20188;-72
2022/07/30 05:25:48;;;;;;;7.75;5.97;;;;;;;28.02;96.23;100021.88;5153395;27;20680;-75
2022/07/30 05:28:15;;;;;;;4.80;4.28;;;;;;;28.14;92.83;100023.00;5153339;27;20199;-75
2022/07/30 05:30:42;;;;;;;9.13;6.90;;;;;;;28.81;90.44;100043.03;5152307;27;20192;-75
2022/07/30 05:33:09;;;;;;;4.95;4.03;;;;;;;28.64;87.64;100030.69;5099784;27;20222;-73
2022/07/30 05:35:37;;;;;;;5.00;3.42;;;;;;;28.01;90.76;100040.59;5152829;27;20651;-75
2022/07/30 05:38:04;;;;;;;3.83;3.58;;;;;;;28.03;92.90;100042.25;5099582;27;20188;-80
2022/07/30 05:40:31;;;;;;;4.05;3.75;;;;;;;27.71;95.92;100039.69;5152652;27;20203;-77
2022/07/30 05:42:57;;;;;;;8.50;4.85;;;;;;;27.45;100.00;100049.13;5153131;27;20212;-76
2022/07/30 05:45:24;;;;;;;22.38;16.10;;;;;;;27.79;98.72;100038.31;5152783;27;20617;-71
2022/07/30 05:47:51;;;;;;;3.75;3.50;;;;;;;27.90;97.84;100041.22;5152271;27;20195;-74
2022/07/30 05:50:18;;;;;;;3.92;3.55;;;;;;;28.17;94.93;100032.63;5141703;27;20203;-77
2022/07/30 05:52:46;;;;;;;4.85;4.35;;;;;;;28.05;93.33;100043.03;5116377;27;20228;-73
2022/07/30 05:55:13;;;;;;;5.70;4.00;;;;;;;27.71;95.54;99989.06;5099058;27;20706;-72
2022/07/30 05:57:41;;;;;;;4.07;3.88;;;;;;;28.14;92.02;100043.47;5152509;27;20195;-74
2022/07/30 06:00:10;;;;;;;6.43;4.13;;;;;;;28.07;94.65;100042.97;5149019;27;20195;-73
2022/07/30 06:02:38;;;;;;;5.70;4.13;;;;;;;27.74;93.75;100047.50;5152646;27;20200;-73
2022/07/30 06:05:05;;;;;;;5.10;4.30;;;;;;;27.85;94.58;100045.97;5147633;27;20266;-74
2022/07/30 06:07:32;;;;;;;4.88;4.47;;;;;;;27.92;95.76;100052.69;5143819;27;20191;-74
2022/07/30 06:10:01;;;;;;;8.07;4.13;;;;;;;28.02;94.76;100043.19;5152482;27;20196;-74
2022/07/30 06:12:29;;;;;;;6.18;3.90;;;;;;;27.74;96.78;100034.19;5098944;27;20200;-74
2022/07/30 06:14:56;;;;;;;5.65;4.75;;;;;;;27.59;99.57;100035.91;5152112;27;20269;-75
2022/07/30 06:17:22;;;;;;;4.53;4.15;;;;;;;27.70;99.81;100029.97;5152324;27;20187;-74
2022/07/30 06:19:50;;;;;;;5.95;4.45;;;;;;;27.20;99.51;99977.69;5143625;27;20352;-73
2022/07/30 06:22:17;;;;;;;6.47;4.88;;;;;;;27.81;95.71;100016.91;5151649;27;20738;-74
2022/07/30 06:24:43;;;;;;;6.20;4.25;;;;;;;27.98;95.46;100028.31;5142652;27;20274;-73
2022/07/30 06:27:12;;;;;;;5.55;4.10;;;;;;;27.97;97.42;100029.25;5130692;27;20671;-73
2022/07/30 06:29:39;;;;;;;6.10;4.38;;;;;;;27.94;95.26;100024.09;5145995;27;20221;-73
2022/07/30 06:32:06;;;;;;;4.65;4.18;;;;;;;27.79;96.44;99998.31;5145119;27;20884;-73
2022/07/30 06:34:33;;;;;;;4.55;4.05;;;;;;;27.96;96.40;100008.91;5151093;27;20648;-73
2022/07/30 06:37:00;;;;;;;5.38;4.55;;;;;;;28.06;98.00;100014.56;5147801;27;20192;-74
2022/07/30 06:39:27;;;;;;;3.83;3.53;;;;;;;27.73;100.00;100012.00;5148972;27;20196;-73
2022/07/30 06:41:53;;;;;;;4.30;4.00;;;;;;;27.91;96.36;100023.44;5151115;27;20192;-74
2022/07/30 06:44:22;;;;;;;5.35;4.40;;;;;;;27.99;95.42;100022.06;5151381;27;20192;-73
2022/07/30 06:46:48;;;;;;;5.50;3.72;;;;;;;27.79;96.27;100016.16;5151546;27;20204;-73
2022/07/30 06:49:15;;;;;;;4.18;3.88;;;;;;;27.80;98.60;100012.50;5151180;27;20207;-72
2022/07/30 06:51:42;;;;;;;12.13;5.05;;;;;;;28.18;94.81;100011.22;5151587;27;20191;-72
2022/07/30 06:54:09;;;;;;;4.68;4.03;;;;;;;28.42;92.47;100009.78;5142306;27;20579;-72
2022/07/30 06:56:37;;;;;;;6.30;4.47;;;;;;;28.58;91.71;100007.03;5139213;27;20188;-72
2022/07/30 06:59:04;;;;;;;8.40;4.35;;;;;;;28.66;93.19;100007.44;5140839;27;20230;-72
2022/07/30 07:01:32;;;;;;;4.70;4.25;;;;;;;28.56;92.69;100008.94;5144014;27;20207;-73
2022/07/30 07:03:59;;;;;;;8.05;4.88;;;;;;;28.72;89.08;99995.53;5139090;27;20200;-72
2022/07/30 07:06:25;;;;;;;6.45;5.65;;;;;;;29.04;91.45;100003.28;5140267;27;20704;-73
2022/07/30 07:08:52;;;;;;;4.47;4.07;;;;;;;29.36;85.22;100003.13;5141422;27;20197;-72
2022/07/30 07:11:19;;;;;;;4.93;4.38;;;;;;;29.22;85.14;100005.75;5130910;28;20566;-75
2022/07/30 07:13:46;;;;;;;4.25;3.85;;;;;;;28.77;85.63;99940.94;5140911;27;20200;-73
2022/07/30 07:16:13;;;;;;;4.38;4.07;;;;;;;29.23;85.28;99997.66;5145358;27;20212;-73
2022/07/30 07:18:41;;;;;;;6.13;4.80;;;;;;;29.59;85.01;99998.97;5143726;27;20223;-73
2022/07/30 07:21:08;;;;;;;5.45;4.97;;;;;;;29.49;81.91;99996.03;5147951;27;20208;-76
2022/07/30 07:23:35;;;;;;;7.10;4.65;;;;;;;29.66;79.67;99995.81;5104142;27;20202;-76
2022/07/30 07:26:02;;;;;;;6.20;4.80;;;;;;;29.89;78.82;99987.19;5141151;27;20667;-79
2022/07/30 07:28:29;;;;;;;4.85;4.38;;;;;;;29.89;75.38;99987.19;5141424;27;20629;-77
2022/07/30 07:30:56;;;;;;;5.03;4.18;;;;;;;30.05;73.94;99980.78;5138445;27;20204;-76
2022/07/30 07:33:22;;;;;;;7.75;3.78;;;;;;;29.65;71.71;99924.59;5105462;27;20184;-78
2022/07/30 07:35:53;;;;;;;5.18;3.88;;;;;;;29.94;70.49;99986.84;5139181;27;20231;-76
2022/07/30 07:38:20;;;;;;;14.57;5.43;;;;;;;30.02;70.09;99977.38;5140233;27;20203;-74
2022/07/30 07:40:47;;;;;;;4.03;3.70;;;;;;;30.30;67.35;99992.44;5141216;27;20199;-77
2022/07/30 07:43:14;;;;;;;5.97;4.47;;;;;;;30.25;66.76;99989.19;5150239;27;20199;-76
2022/07/30 07:45:41;;;;;;;5.18;4.55;;;;;;;30.33;66.44;99986.00;5150803;27;20203;-77
2022/07/30 07:48:08;;;;;;;4.88;4.10;;;;;;;30.66;64.52;99994.44;5096937;27;20614;-77
2022/07/30 07:50:35;;;;;;;5.45;4.85;;;;;;;30.81;64.23;99989.84;5151607;27;20204;-75
2022/07/30 07:53:04;;;;;;;4.78;4.47;;;;;;;30.71;62.80;99986.97;5151205;27;20195;-74
2022/07/30 07:55:30;;;;;;;8.52;3.83;;;;;;;30.97;63.06;99993.16;5153279;27;20215;-74
2022/07/30 07:57:57;;;;;;;5.75;4.30;;;;;;;30.71;61.89;99928.06;5152812;27;20216;-72
2022/07/30 08:00:24;;;;;;;4.68;4.28;;;;;;;31.24;58.70;99985.00;5153706;27;20562;-76
2022/07/30 08:02:51;;;;;;;34.65;20.58;;;;;;;31.33;57.86;99989.69;5145474;27;20194;-75
2022/07/30 08:05:18;;;;;;;9.88;5.20;;;;;;;31.41;57.10;99993.53;5132974;27;20714;-74
2022/07/30 08:07:46;;;;;;;3.97;3.45;;;;;;;31.33;54.10;99987.00;5151359;27;20882;-76
2022/07/30 08:10:14;;;;;;;4.47;3.63;;;;;;;31.43;55.00;99990.75;5154282;27;20203;-72
2022/07/30 08:12:42;;;;;;;4.25;3.78;;;;;;;31.66;54.10;99991.78;5152800;27;20577;-73
2022/07/30 08:15:10;;;;;;;4.88;3.88;;;;;;;31.61;52.39;99986.75;5153291;27;20251;-74
2022/07/30 08:17:40;;;;;;;4.45;4.03;;;;;;;31.74;52.09;99989.41;5152900;27;20198;-74
2022/07/30 08:20:09;;;;;;;4.05;3.72;;;;;;;31.67;50.55;99980.97;5146971;27;20659;-75
2022/07/30 08:22:36;;;;;;;4.60;4.20;;;;;;;31.91;51.23;99972.91;5146796;27;20584;-77
2022/07/30 08:25:03;;;;;;;5.55;4.07;;;;;;;32.18;49.85;99980.72;5153517;27;20203;-78
2022/07/30 08:27:32;;;;;;;5.53;3.60;;;;;;;32.42;48.97;99989.63;5117308;27;20203;-74
2022/07/30 08:29:59;;;;;;;4.22;3.85;;;;;;;32.45;48.11;99984.00;5112185;27;20573;-79
2022/07/30 08:32:26;;;;;;;4.35;4.00;;;;;;;32.55;45.47;99976.94;5098191;27;20204;-78
2022/07/30 08:34:52;;;;;;;4.13;3.83;;;;;;;32.60;45.34;99979.31;5110734;27;20196;-79
2022/07/30 08:37:19;;;;;;;4.03;3.72;;;;;;;32.61;44.44;99973.81;5153427;27;20577;-78
2022/07/30 08:39:46;;;;;;;4.30;4.00;;;;;;;32.67;43.54;99977.84;5153529;27;20211;-77
2022/07/30 08:42:15;;;;;;;3.80;3.40;;;;;;;32.60;41.89;99980.16;5153616;27;20627;-75
2022/07/30 08:44:45;;;;;;;5.15;3.55;;;;;;;32.84;42.01;99962.13;5148259;27;20298;-75
2022/07/30 08:47:16;;;;;;;7.40;3.20;;;;;;;32.80;42.55;99974.09;5097317;27;20283;-76
2022/07/30 08:49:44;;;;;;;7.03;3.75;;;;;;;33.12;42.07;99976.94;5152620;27;20199;-75
2022/07/30 08:52:11;;;;;;;2.70;2.50;;;;;;;32.96;39.52;99965.69;5115208;27;20202;-75
2022/07/30 08:54:39;;;;;;;3.83;3.53;;;;;;;33.22;39.97;99961.78;5151363;27;20203;-74
2022/07/30 08:57:06;;;;;;;2.60;2.47;;;;;;;33.13;39.53;99970.59;5150643;27;20314;-76
2022/07/30 08:59:34;;;;;;;6.00;2.78;;;;;;;33.04;39.15;99971.28;5148339;27;20197;-76
2022/07/30 09:02:02;;;;;;;3.58;3.28;;;;;;;33.32;39.27;99959.19;5150089;27;20218;-75
2022/07/30 09:04:29;;;;;;;4.13;2.80;;;;;;;33.29;38.64;99954.94;5153456;27;20227;-74
2022/07/30 09:06:56;;;;;;;3.30;3.00;;;;;;;33.17;39.16;99957.75;5152030;27;20839;-75
2022/07/30 09:09:23;;;;;;;3.50;3.20;;;;;;;33.19;39.92;99955.78;5152578;27;20205;-73
2022/07/30 09:11:50;;;;;;;3.80;3.50;;;;;;;33.39;40.28;99941.63;5099053;27;20202;-74
2022/07/30 09:14:16;;;;;;;2.42;2.33;;;;;;;33.22;40.72;99929.53;5153006;27;20295;-75
2022/07/30 09:16:44;;;;;;;8.98;3.17;;;;;;;33.27;39.60;99937.22;5141808;27;20219;-75
2022/07/30 09:19:15;;;;;;;4.95;3.40;;;;;;;33.47;40.02;99939.13;5148551;27;20219;-76
2022/07/30 09:21:42;;;;;;;3.42;3.22;;;;;;;33.37;40.22;99943.56;5141584;27;20651;-75
2022/07/30 09:24:11;;;;;;;4.10;3.80;;;;;;;33.30;39.36;99910.94;5152845;27;20545;-74
2022/07/30 09:26:56;;;;;;;3.30;3.00;;;;;;;33.75;37.09;99921.59;5115826;27;20199;-75
2022/07/30 09:29:24;;;;;;;3.78;3.50;;;;;;;34.08;37.82;99944.81;5106363;27;20200;-73
2022/07/30 09:31:56;;;;;;;4.28;3.50;;;;;;;34.22;39.58;99936.44;5151531;27;20200;-74
2022/07/30 09:34:26;;;;;;;4.40;3.53;;;;;;;34.11;39.39;99925.72;5149293;27;20202;-73
2022/07/30 09:36:53;;;;;;;4.43;4.10;;;;;;;33.94;39.04;99928.97;5151686;27;20223;-76
2022/07/30 09:39:31;;;;;;;5.15;3.40;;;;;;;34.00;39.41;99931.19;5152083;27;20207;-73
2022/07/30 09:41:58;;;;;;;3.67;3.47;;;;;;;33.91;39.72;99900.50;5150644;27;20203;-75
2022/07/30 09:44:27;;;;;;;3.80;3.50;;;;;;;33.72;39.53;99906.56;5151932;27;20659;-75
2022/07/30 09:46:54;;;;;;;4.20;3.90;;;;;;;33.92;40.50;99917.50;5148807;27;20191;-75
2022/07/30 09:49:22;;;;;;;9.25;3.67;;;;;;;34.30;39.92;99920.50;5115344;27;20210;-76
2022/07/30 09:51:51;;;;;;;4.82;3.72;;;;;;;34.51;38.01;99912.41;5151343;27;20196;-75
2022/07/30 09:54:19;;;;;;;3.70;3.42;;;;;;;34.52;38.45;99906.91;5152181;27;20211;-76
2022/07/30 09:56:46;;;;;;;3.35;3.15;;;;;;;34.23;37.44;99903.16;5151883;27;20235;-75
2022/07/30 09:59:29;;;;;;;3.42;3.13;;;;;;;34.25;37.65;99909.25;5115384;27;20191;-75
2022/07/30 10:01:57;;;;;;;4.00;3.70;;;;;;;34.38;37.44;99904.56;5150432;27;20199;-77
2022/07/30 10:04:25;;;;;;;5.55;3.72;;;;;;;34.44;37.08;99909.41;5151855;27;20233;-75
2022/07/30 10:06:53;;;;;;;4.20;3.80;;;;;;;34.23;36.37;99900.47;5151169;27;20207;-73
2022/07/30 10:09:28;;;;;;;4.13;3.83;;;;;;;34.33;36.23;99875.31;5151335;27;20199;-76
2022/07/30 10:11:56;;;;;;;3.40;3.20;;;;;;;34.47;35.93;99892.09;5151329;27;20615;-76
2022/07/30 10:14:25;;;;;;;3.50;3.30;;;;;;;34.70;36.41;99908.03;5151538;27;20199;-80
2022/07/30 10:16:52;;;;;;;3.70;3.40;;;;;;;34.69;35.59;99892.84;5151269;27;20237;-77
2022/07/30 10:19:20;;;;;;;3.97;3.67;;;;;;;34.72;36.21;99879.09;5151604;27;20203;-73
2022/07/30 10:21:49;;;;;;;4.72;3.50;;;;;;;34.79;36.54;99891.03;5151239;27;20192;-77
2022/07/30 10:24:18;;;;;;;3.20;2.95;;;;;;;34.93;34.91;99889.78;5151122;27;20191;-78
2022/07/30 10:26:46;;;;;;;4.80;3.72;;;;;;;34.94;35.79;99890.66;5151748;27;20283;-78
2022/07/30 10:29:16;;;;;;;3.53;3.33;;;;;;;35.00;35.22;99890.09;5151243;27;20256;-75
2022/07/30 10:31:43;;;;;;;3.53;3.22;;;;;;;35.07;35.03;99885.91;5151536;27;20231;-76
2022/07/30 10:34:10;;;;;;;3.20;2.95;;;;;;;35.17;34.39;99881.41;5140705;27;20200;-77
2022/07/30 10:36:40;;;;;;;3.17;2.97;;;;;;;35.02;34.03;99856.66;5150737;27;20283;-75
2022/07/30 10:39:09;;;;;;;4.50;3.47;;;;;;;34.79;34.78;99874.88;5151582;27;20191;-78
2022/07/30 10:41:52;;;;;;;3.63;3.42;;;;;;;34.90;34.08;99870.34;5150868;27;20188;-76
2022/07/30 10:44:55;;;;;;;5.90;3.45;;;;;;;35.22;34.98;99874.59;5150774;27;20195;-78
2022/07/30 10:47:24;;;;;;;30.92;19.98;;;;;;;35.02;34.36;99861.19;5142006;27;20195;-75
2022/07/30 10:50:10;;;;;;;3.72;3.53;;;;;;;35.28;34.95;99857.03;5138039;27;22037;-75
2022/07/30 10:52:52;;;;;;;3.47;3.28;;;;;;;35.10;34.86;99853.25;5150698;27;20218;-76
2022/07/30 10:55:22;;;;;;;3.35;3.08;;;;;;;34.84;33.30;99851.06;5135905;27;20192;-76
2022/07/30 10:58:05;;;;;;;3.03;2.70;;;;;;;35.01;33.39;99827.13;5133267;27;20226;-76
2022/07/30 11:00:34;;;;;;;3.60;3.30;;;;;;;34.81;33.75;99827.09;5151915;27;20659;-74
2022/07/30 11:03:19;;;;;;;6.43;3.88;;;;;;;35.00;33.94;99837.03;5147168;27;20757;-75
2022/07/30 11:05:48;;;;;;;3.80;3.45;;;;;;;35.12;34.00;99840.50;5130830;28;20232;-75
2022/07/30 11:08:34;;;;;;;3.78;3.47;;;;;;;35.12;34.15;99835.13;5130467;28;20231;-75
2022/07/30 11:11:01;;;;;;;3.83;3.53;;;;;;;35.00;34.58;99820.00;5131229;28;20196;-75
2022/07/30 11:13:56;;;;;;;4.00;3.60;;;;;;;35.29;34.09;99831.75;5134184;27;20192;-76
2022/07/30 11:16:24;;;;;;;3.78;3.47;;;;;;;35.35;34.87;99827.66;5139077;27;20569;-73
2022/07/30 11:19:07;;;;;;;4.10;3.70;;;;;;;35.45;34.79;99836.59;5136112;27;20207;-74
2022/07/30 11:21:35;;;;;;;3.65;3.15;;;;;;;35.34;35.20;99826.78;5056782;28;20190;-77
2022/07/30 11:24:03;;;;;;;5.22;3.72;;;;;;;35.15;35.37;99822.22;5067300;28;20230;-74
2022/07/30 11:26:50;;;;;;;3.80;3.50;;;;;;;35.40;35.49;99826.22;5067525;28;20672;-73
2022/07/30 11:29:35;;;;;;;3.67;3.38;;;;;;;35.27;35.30;99817.56;5067830;28;20202;-74
2022/07/30 11:32:25;;;;;;;4.00;3.80;;;;;;;35.16;35.08;99815.00;5071037;28;20202;-77
2022/07/30 11:34:53;;;;;;;4.03;3.65;;;;;;;35.20;35.38;99798.41;5071238;28;20248;-79